createdAt,value
2022-11-10T00:01:19.133Z,8.20
2022-11-10T00:03:48.930Z,8.20
2022-11-10T00:06:15.959Z,8.10
2022-11-10T00:08:42.997Z,8.10
2022-11-10T00:11:10.129Z,8.00
2022-11-10T00:14:01.361Z,8.00
2022-11-10T00:16:46.701Z,7.90
2022-11-10T00:19:13.770Z,7.80
2022-11-10T00:21:40.774Z,7.80
2022-11-10T00:24:08.157Z,7.70
2022-11-10T00:26:35.194Z,7.60
2022-11-10T00:29:02.198Z,7.60
2022-11-10T00:31:29.230Z,7.60
2022-11-10T00:33:56.552Z,7.50
2022-11-10T00:36:24.414Z,7.50
2022-11-10T00:38:52.050Z,7.50
2022-11-10T00:41:19.469Z,7.40
2022-11-10T00:43:46.799Z,7.40
2022-11-10T00:46:15.568Z,7.40
2022-11-10T00:48:42.665Z,7.40
2022-11-10T00:51:25.976Z,7.40
2022-11-10T00:53:53.982Z,7.40
2022-11-10T00:56:23.258Z,7.40
2022-11-10T00:58:50.430Z,7.40
2022-11-10T01:01:22.033Z,7.40
2022-11-10T01:03:49.119Z,7.40
2022-11-10T01:06:18.271Z,7.30
2022-11-10T01:08:46.976Z,7.30
2022-11-10T01:11:15.293Z,7.40
2022-11-10T01:13:43.238Z,7.30
2022-11-10T01:16:23.730Z,7.40
2022-11-10T01:18:53.961Z,7.40
2022-11-10T01:21:22.146Z,7.40
2022-11-10T01:23:49.661Z,7.40
2022-11-10T01:26:17.718Z,7.40
2022-11-10T01:28:45.492Z,7.40
2022-11-10T01:31:16.359Z,7.30
2022-11-10T01:33:44.058Z,7.40
2022-11-10T01:36:12.927Z,7.30
2022-11-10T01:38:42.538Z,7.30
2022-11-10T01:41:12.702Z,7.30
2022-11-10T01:43:40.013Z,7.30
2022-11-10T01:46:13.310Z,7.30
2022-11-10T01:48:55.523Z,7.20
2022-11-10T01:51:35.774Z,7.10
2022-11-10T01:54:12.317Z,7.10
2022-11-10T01:56:52.535Z,7.00
2022-11-10T01:59:24.967Z,6.90
2022-11-10T02:01:55.694Z,6.90
2022-11-10T02:04:22.842Z,6.80
2022-11-10T02:06:50.860Z,6.80
2022-11-10T02:09:18.669Z,6.70
2022-11-10T02:11:46.878Z,6.70
2022-11-10T02:14:15.201Z,6.80
2022-11-10T02:16:43.097Z,6.70
2022-11-10T02:19:23.128Z,6.70
2022-11-10T02:21:50.257Z,6.70
2022-11-10T02:24:18.001Z,6.60
2022-11-10T02:26:56.365Z,6.60
2022-11-10T02:29:24.678Z,6.60
2022-11-10T02:31:51.813Z,6.60
2022-11-10T02:34:18.902Z,6.60
2022-11-10T02:36:45.953Z,6.70
2022-11-10T02:39:12.930Z,6.60
2022-11-10T02:41:40.087Z,6.70
2022-11-10T02:44:08.065Z,6.70
2022-11-10T02:46:37.564Z,6.70
2022-11-10T02:49:04.845Z,6.70
2022-11-10T02:51:31.853Z,6.70
2022-11-10T02:53:58.905Z,6.70
2022-11-10T02:56:26.405Z,6.60
2022-11-10T02:58:53.389Z,6.60
2022-11-10T03:01:20.423Z,6.60
2022-11-10T03:03:47.473Z,6.50
2022-11-10T03:06:14.621Z,6.40
2022-11-10T03:08:41.599Z,6.40
2022-11-10T03:11:08.805Z,6.40
2022-11-10T03:13:58.920Z,6.30
2022-11-10T03:16:24.449Z,6.30
2022-11-10T03:18:51.428Z,6.30
2022-11-10T03:21:18.424Z,6.20
2022-11-10T03:23:45.460Z,6.20
2022-11-10T03:26:12.551Z,6.20
2022-11-10T03:28:39.557Z,6.00
2022-11-10T03:31:06.682Z,6.20
2022-11-10T03:33:33.662Z,6.20
2022-11-10T03:36:00.647Z,6.10
2022-11-10T03:38:27.669Z,6.00
2022-11-10T03:41:18.104Z,6.10
2022-11-10T03:43:41.662Z,6.00
2022-11-10T03:46:09.441Z,6.00
2022-11-10T03:48:36.447Z,5.90
2022-11-10T03:51:03.624Z,5.90
2022-11-10T03:53:30.664Z,5.90
2022-11-10T03:56:01.656Z,5.90
2022-11-10T03:58:28.873Z,5.90
2022-11-10T04:00:56.378Z,5.90
2022-11-10T04:03:24.856Z,5.90
2022-11-10T04:06:11.128Z,5.90
2022-11-10T04:08:56.659Z,6.20
2022-11-10T04:11:42.252Z,6.40
2022-11-10T04:14:27.811Z,6.40
2022-11-10T04:16:55.313Z,6.50
2022-11-10T04:19:22.357Z,6.40
2022-11-10T04:21:49.756Z,6.40
2022-11-10T04:24:17.176Z,6.30
2022-11-10T04:26:44.699Z,6.20
2022-11-10T04:29:12.537Z,6.10
2022-11-10T04:31:41.407Z,5.90
2022-11-10T04:34:12.521Z,5.80
2022-11-10T04:36:42.706Z,5.90
2022-11-10T04:39:10.861Z,5.80
2022-11-10T04:41:38.033Z,5.80
2022-11-10T04:44:05.782Z,5.90
2022-11-10T04:46:35.539Z,5.90
2022-11-10T04:49:03.844Z,6.20
2022-11-10T04:51:38.734Z,6.30
2022-11-10T04:54:07.798Z,6.40
2022-11-10T04:56:35.011Z,6.30
2022-11-10T04:59:02.490Z,6.40
2022-11-10T05:01:29.587Z,6.60
2022-11-10T05:03:56.881Z,6.70
2022-11-10T05:06:24.752Z,6.70
2022-11-10T05:08:52.431Z,6.60
2022-11-10T05:11:20.582Z,6.50
2022-11-10T05:13:47.786Z,6.40
2022-11-10T05:16:16.486Z,6.30
2022-11-10T05:18:43.533Z,6.30
2022-11-10T05:21:11.329Z,6.30
2022-11-10T05:23:38.369Z,6.30
2022-11-10T05:26:25.648Z,6.20
2022-11-10T05:28:52.673Z,6.20
2022-11-10T05:31:19.681Z,6.10
2022-11-10T05:33:46.795Z,6.20
2022-11-10T05:36:13.998Z,6.20
2022-11-10T05:38:43.684Z,6.30
2022-11-10T05:41:11.689Z,6.30
2022-11-10T05:43:38.718Z,6.30
2022-11-10T05:46:05.924Z,6.30
2022-11-10T05:48:34.018Z,6.40
2022-11-10T05:51:01.006Z,6.30
2022-11-10T05:53:27.981Z,6.30
2022-11-10T05:55:55.028Z,6.20
2022-11-10T05:58:22.018Z,6.10
2022-11-10T06:00:51.699Z,6.10
2022-11-10T06:03:20.690Z,6.10
2022-11-10T06:05:48.188Z,6.10
2022-11-10T06:08:15.313Z,6.10
2022-11-10T06:10:42.383Z,6.00
2022-11-10T06:13:10.654Z,6.00
2022-11-10T06:15:37.692Z,6.00
2022-11-10T06:18:04.896Z,6.10
2022-11-10T06:20:32.313Z,6.10
2022-11-10T06:23:06.792Z,6.10
2022-11-10T06:25:36.284Z,6.10
2022-11-10T06:28:04.191Z,6.00
2022-11-10T06:30:34.026Z,6.00
2022-11-10T06:33:01.608Z,6.00
2022-11-10T06:35:29.949Z,6.00
2022-11-10T06:38:03.816Z,6.00
2022-11-10T06:40:32.706Z,5.90
2022-11-10T06:42:59.865Z,5.80
2022-11-10T06:45:28.596Z,5.80
2022-11-10T06:48:03.430Z,5.70
2022-11-10T06:50:31.124Z,5.80
2022-11-10T06:52:59.661Z,5.80
2022-11-10T06:55:27.865Z,5.80
2022-11-10T06:57:54.958Z,5.90
2022-11-10T07:00:22.602Z,5.90
2022-11-10T07:03:03.304Z,5.90
2022-11-10T07:05:31.085Z,6.00
2022-11-10T07:08:07.415Z,6.10
2022-11-10T07:10:34.788Z,6.20
2022-11-10T07:13:04.776Z,6.30
2022-11-10T07:15:32.054Z,6.30
2022-11-10T07:17:59.125Z,6.30
2022-11-10T07:20:26.477Z,6.40
2022-11-10T07:23:06.247Z,6.40
2022-11-10T07:25:36.638Z,6.40
2022-11-10T07:28:10.584Z,6.50
2022-11-10T07:30:37.947Z,6.60
2022-11-10T07:33:14.309Z,6.70
2022-11-10T07:35:42.173Z,6.60
2022-11-10T07:38:14.839Z,6.60
2022-11-10T07:40:41.890Z,6.60
2022-11-10T07:43:08.916Z,6.60
2022-11-10T07:45:35.962Z,6.70
2022-11-10T07:48:06.088Z,6.90
2022-11-10T07:50:36.774Z,7.10
2022-11-10T07:53:16.173Z,7.20
2022-11-10T07:55:45.501Z,7.30
2022-11-10T07:58:14.989Z,7.50
2022-11-10T08:00:43.328Z,7.60
2022-11-10T08:03:13.584Z,7.80
2022-11-10T08:05:41.079Z,7.90
2022-11-10T08:08:08.395Z,8.00
2022-11-10T08:10:36.175Z,8.10
2022-11-10T08:13:06.622Z,8.20
2022-11-10T08:15:34.623Z,8.30
2022-11-10T08:18:14.375Z,8.40
2022-11-10T08:20:42.157Z,8.50
2022-11-10T08:23:09.698Z,8.60
2022-11-10T08:25:37.957Z,8.70
2022-11-10T08:28:19.625Z,8.80
2022-11-10T08:30:48.833Z,9.00
2022-11-10T08:33:20.348Z,9.10
2022-11-10T08:35:51.090Z,9.20
2022-11-10T08:38:24.663Z,9.20
2022-11-10T08:40:52.135Z,9.30
2022-11-10T08:43:19.509Z,9.30
2022-11-10T08:45:46.978Z,9.40
2022-11-10T08:48:20.472Z,9.40
2022-11-10T08:50:49.733Z,9.50
2022-11-10T08:53:20.993Z,9.60
2022-11-10T08:55:48.921Z,9.70
2022-11-10T08:58:22.236Z,9.70
2022-11-10T09:00:49.571Z,9.70
2022-11-10T09:03:23.670Z,9.70
2022-11-10T09:05:56.833Z,9.80
2022-11-10T09:08:26.042Z,9.90
2022-11-10T09:10:53.076Z,10.00
2022-11-10T09:13:28.132Z,10.10
2022-11-10T09:16:00.391Z,10.10
2022-11-10T09:18:27.448Z,10.20
2022-11-10T09:20:54.657Z,10.20
2022-11-10T09:23:23.079Z,10.20
2022-11-10T09:25:53.346Z,10.20
2022-11-10T09:28:21.885Z,10.30
2022-11-10T09:30:52.397Z,10.30
2022-11-10T09:33:20.429Z,10.40
2022-11-10T09:35:48.099Z,10.40
2022-11-10T09:38:15.195Z,10.40
2022-11-10T09:41:04.978Z,10.50
2022-11-10T09:43:46.121Z,10.60
2022-11-10T09:46:21.342Z,10.70
2022-11-10T09:48:59.506Z,10.90
2022-11-10T09:51:36.233Z,10.90
2022-11-10T09:54:22.979Z,10.90
2022-11-10T09:56:53.524Z,11.00
2022-11-10T09:59:32.405Z,11.10
2022-11-10T10:02:29.745Z,11.10
2022-11-10T10:05:15.242Z,11.10
2022-11-10T10:08:03.392Z,11.20
2022-11-10T10:10:49.444Z,11.30
2022-11-10T10:13:51.720Z,11.30
2022-11-10T10:16:43.165Z,11.30
2022-11-10T10:19:46.256Z,11.40
2022-11-10T10:22:58.264Z,11.40
2022-11-10T10:25:28.027Z,11.40
2022-11-10T10:28:27.554Z,11.60
2022-11-10T10:31:08.047Z,11.70
2022-11-10T10:33:35.093Z,11.90
2022-11-10T10:36:16.004Z,12.00
2022-11-10T10:38:44.894Z,12.10
2022-11-10T10:41:25.937Z,12.20
2022-11-10T10:43:57.326Z,12.20
2022-11-10T10:46:32.837Z,12.20
2022-11-10T10:49:30.554Z,12.20
2022-11-10T10:52:25.023Z,12.20
2022-11-10T10:55:06.587Z,12.20
2022-11-10T10:57:33.743Z,12.10
2022-11-10T11:00:24.186Z,12.20
2022-11-10T11:03:13.485Z,12.50
2022-11-10T11:05:40.541Z,12.40
2022-11-10T11:08:19.103Z,12.30
2022-11-10T11:10:47.510Z,12.30
2022-11-10T11:13:27.412Z,12.40
2022-11-10T11:15:59.830Z,12.70
2022-11-10T11:18:30.422Z,13.20
2022-11-10T11:21:33.703Z,13.30
2022-11-10T11:24:12.972Z,13.60
2022-11-10T11:26:58.839Z,13.90
2022-11-10T11:29:44.073Z,14.10
2022-11-10T11:33:07.010Z,14.20
2022-11-10T11:36:39.116Z,13.90
2022-11-10T11:39:32.650Z,13.80
2022-11-10T11:42:32.169Z,13.90
2022-11-10T11:45:14.093Z,14.00
2022-11-10T11:48:12.440Z,14.00
2022-11-10T11:50:56.125Z,13.60
2022-11-10T11:54:05.941Z,13.50
2022-11-10T11:56:43.725Z,13.60
2022-11-10T11:59:32.574Z,13.30
2022-11-10T12:02:27.482Z,13.50
2022-11-10T12:05:48.246Z,13.40
2022-11-10T12:08:40.526Z,13.70
2022-11-10T12:11:33.283Z,14.10
2022-11-10T12:15:05.596Z,14.20
2022-11-10T12:17:54.858Z,14.00
2022-11-10T12:20:46.007Z,13.30
2022-11-10T12:23:56.514Z,14.00
2022-11-10T12:26:59.571Z,14.60
2022-11-10T12:29:45.131Z,15.10
2022-11-10T12:32:31.485Z,15.60
2022-11-10T12:35:14.785Z,16.70
2022-11-10T12:37:46.785Z,17.30
2022-11-10T12:40:21.590Z,18.20
2022-11-10T12:43:34.148Z,18.70
2022-11-10T12:46:08.834Z,19.40
2022-11-10T12:49:11.566Z,19.70
2022-11-10T12:52:17.976Z,20.10
2022-11-10T12:54:47.086Z,20.40
2022-11-10T12:57:22.896Z,18.60
2022-11-10T13:00:31.207Z,17.40
2022-11-10T13:02:59.591Z,16.30
2022-11-10T13:05:45.471Z,15.60
2022-11-10T13:08:36.914Z,15.50
2022-11-10T13:11:13.220Z,15.90
2022-11-10T13:13:59.899Z,16.40
2022-11-10T13:16:40.502Z,16.10
2022-11-10T13:19:32.856Z,16.20
2022-11-10T13:22:00.389Z,16.70
2022-11-10T13:24:33.026Z,16.90
2022-11-10T13:27:33.344Z,17.30
2022-11-10T13:30:00.651Z,17.00
2022-11-10T13:32:35.123Z,16.90
2022-11-10T13:35:30.118Z,16.70
2022-11-10T13:37:57.990Z,15.70
2022-11-10T13:40:25.019Z,15.80
2022-11-10T13:42:57.910Z,16.10
2022-11-10T13:45:39.960Z,16.40
2022-11-10T13:48:13.160Z,16.40
2022-11-10T13:51:08.341Z,15.90
2022-11-10T13:53:56.525Z,15.30
2022-11-10T13:56:42.038Z,14.50
2022-11-10T13:59:21.927Z,14.30
2022-11-10T14:01:49.087Z,13.70
2022-11-10T14:04:43.638Z,14.00
2022-11-10T14:07:21.465Z,14.20
2022-11-10T14:09:52.855Z,14.40
2022-11-10T14:12:28.285Z,14.60
2022-11-10T14:15:30.469Z,14.90
2022-11-10T14:17:58.330Z,15.10
2022-11-10T14:20:38.136Z,15.10
2022-11-10T14:23:06.387Z,15.00
2022-11-10T14:25:40.344Z,14.80
2022-11-10T14:28:32.830Z,14.50
2022-11-10T14:31:00.173Z,14.10
2022-11-10T14:33:28.373Z,13.80
2022-11-10T14:36:08.976Z,13.60
2022-11-10T14:38:44.518Z,13.40
2022-11-10T14:41:22.814Z,13.20
2022-11-10T14:44:06.001Z,13.00
2022-11-10T14:46:33.041Z,12.90
2022-11-10T14:49:00.322Z,12.80
2022-11-10T14:51:29.768Z,12.60
2022-11-10T14:53:57.907Z,12.50
2022-11-10T14:56:32.652Z,12.30
2022-11-10T14:59:03.728Z,12.10
2022-11-10T15:01:38.820Z,12.00
2022-11-10T15:04:08.581Z,11.90
2022-11-10T15:06:36.310Z,11.70
2022-11-10T15:09:29.551Z,11.60
2022-11-10T15:12:23.589Z,11.40
2022-11-10T15:14:59.858Z,11.20
2022-11-10T15:17:48.836Z,11.00
2022-11-10T15:20:40.420Z,10.90
2022-11-10T15:23:33.090Z,10.80
2022-11-10T15:26:00.599Z,10.60
2022-11-10T15:28:35.919Z,10.50
2022-11-10T15:31:07.840Z,10.30
2022-11-10T15:33:37.583Z,10.20
2022-11-10T15:36:28.826Z,10.10
2022-11-10T15:39:10.678Z,9.90
2022-11-10T15:41:49.050Z,9.80
2022-11-10T15:44:21.703Z,9.80
2022-11-10T15:46:54.296Z,9.70
2022-11-10T15:49:30.372Z,9.60
2022-11-10T15:52:04.412Z,9.50
2022-11-10T15:54:35.946Z,9.40
2022-11-10T15:57:03.040Z,9.40
2022-11-10T15:59:30.166Z,9.40
2022-11-10T16:01:57.434Z,9.30
2022-11-10T16:04:27.444Z,9.20
2022-11-10T16:06:55.151Z,9.20
2022-11-10T16:09:22.295Z,9.10
2022-11-10T16:11:49.605Z,9.10
2022-11-10T16:14:18.313Z,9.00
2022-11-10T16:16:45.406Z,9.00
2022-11-10T16:19:13.407Z,8.90
2022-11-10T16:21:40.556Z,8.90
2022-11-10T16:24:07.973Z,8.80
2022-11-10T16:26:35.498Z,8.80
2022-11-10T16:29:02.731Z,8.80
2022-11-10T16:31:31.879Z,8.70
2022-11-10T16:33:58.860Z,8.70
2022-11-10T16:36:30.131Z,8.60
2022-11-10T16:38:57.693Z,8.50
2022-11-10T16:41:25.012Z,8.50
2022-11-10T16:43:52.037Z,8.50
2022-11-10T16:46:26.102Z,8.40
2022-11-10T16:48:56.915Z,8.30
2022-11-10T16:51:37.790Z,8.20
2022-11-10T16:54:04.874Z,8.20
2022-11-10T16:56:31.900Z,8.20
2022-11-10T16:58:58.883Z,8.10
2022-11-10T17:01:31.709Z,8.10
2022-11-10T17:04:07.737Z,8.00
2022-11-10T17:06:34.863Z,7.90
2022-11-10T17:09:23.821Z,7.80
2022-11-10T17:11:50.914Z,7.80
2022-11-10T17:14:18.964Z,7.70
2022-11-10T17:16:46.904Z,7.60
2022-11-10T17:19:23.547Z,7.60
2022-11-10T17:21:52.341Z,7.60
2022-11-10T17:24:19.816Z,7.50
2022-11-10T17:26:47.873Z,7.50
2022-11-10T17:29:21.270Z,7.40
2022-11-10T17:31:50.473Z,7.40
2022-11-10T17:34:17.636Z,7.30
2022-11-10T17:36:44.915Z,7.40
2022-11-10T17:39:15.693Z,7.40
2022-11-10T17:41:43.397Z,7.50
2022-11-10T17:44:15.621Z,7.40
2022-11-10T17:46:43.482Z,7.40
2022-11-10T17:49:10.533Z,7.40
2022-11-10T17:51:38.055Z,7.40
2022-11-10T17:54:11.461Z,7.40
2022-11-10T17:56:38.493Z,7.40
2022-11-10T17:59:05.573Z,7.40
2022-11-10T18:01:32.670Z,7.40
2022-11-10T18:03:59.810Z,7.30
2022-11-10T18:06:26.861Z,7.20
2022-11-10T18:08:53.836Z,7.20
2022-11-10T18:11:20.857Z,7.20
2022-11-10T18:13:47.927Z,7.20
2022-11-10T18:16:15.072Z,7.10
2022-11-10T18:18:42.427Z,7.00
2022-11-10T18:21:12.174Z,6.90
2022-11-10T18:23:39.158Z,6.90
2022-11-10T18:26:08.514Z,6.80
2022-11-10T18:28:36.297Z,6.80
2022-11-10T18:31:12.758Z,6.70
2022-11-10T18:33:40.293Z,6.80
2022-11-10T18:36:08.917Z,6.70
2022-11-10T18:38:36.153Z,6.70
2022-11-10T18:41:25.846Z,6.60
2022-11-10T18:43:53.078Z,6.60
2022-11-10T18:46:23.334Z,6.60
2022-11-10T18:48:50.692Z,6.60
2022-11-10T18:51:18.842Z,6.70
2022-11-10T18:53:45.841Z,6.60
2022-11-10T18:56:14.395Z,6.70
2022-11-10T18:58:42.433Z,6.60
2022-11-10T19:01:13.118Z,6.60
2022-11-10T19:03:40.244Z,6.60
2022-11-10T19:06:07.472Z,6.60
2022-11-10T19:08:34.488Z,6.60
2022-11-10T19:11:06.637Z,6.50
2022-11-10T19:13:33.719Z,6.50
2022-11-10T19:16:09.006Z,6.50
2022-11-10T19:18:39.427Z,6.50
2022-11-10T19:21:11.666Z,6.40
2022-11-10T19:23:41.886Z,6.40
2022-11-10T19:26:22.618Z,6.40
2022-11-10T19:28:54.249Z,6.40
2022-11-10T19:31:23.182Z,6.40
2022-11-10T19:33:54.074Z,6.40
2022-11-10T19:36:25.013Z,6.40
2022-11-10T19:38:55.096Z,6.40
2022-11-10T19:41:31.810Z,6.40
2022-11-10T19:44:01.785Z,6.20
2022-11-10T19:46:34.221Z,6.10
2022-11-10T19:49:01.223Z,6.10
2022-11-10T19:51:28.734Z,6.00
2022-11-10T19:54:01.593Z,6.00
2022-11-10T19:56:32.086Z,6.00
2022-11-10T19:58:59.813Z,5.90
2022-11-10T20:01:27.564Z,5.80
2022-11-10T20:03:54.666Z,5.70
2022-11-10T20:06:23.502Z,5.80
2022-11-10T20:08:51.152Z,5.80
2022-11-10T20:11:23.607Z,5.90
2022-11-10T20:13:55.150Z,5.90
2022-11-10T20:16:23.886Z,5.80
2022-11-10T20:18:51.006Z,5.80
2022-11-10T20:21:22.821Z,5.70
2022-11-10T20:23:57.518Z,5.70
2022-11-10T20:26:25.405Z,5.60
2022-11-10T20:28:52.493Z,5.50
2022-11-10T20:31:24.476Z,5.50
2022-11-10T20:33:53.868Z,5.40
2022-11-10T20:36:26.244Z,5.30
2022-11-10T20:38:57.345Z,5.30
2022-11-10T20:41:27.329Z,5.30
2022-11-10T20:43:55.342Z,5.20
2022-11-10T20:49:10.787Z,5.10
2022-11-10T20:51:37.831Z,5.20
2022-11-10T20:54:04.890Z,5.20
2022-11-10T20:56:31.933Z,5.30
2022-11-10T20:58:59.110Z,5.30
2022-11-10T21:01:26.686Z,5.40
2022-11-10T21:03:55.074Z,5.50
2022-11-10T21:06:22.766Z,5.50
2022-11-10T21:08:50.522Z,5.50
2022-11-10T21:11:36.149Z,5.60
2022-11-10T21:14:03.281Z,5.60
2022-11-10T21:16:30.281Z,5.60
2022-11-10T21:18:57.630Z,5.50
2022-11-10T21:21:34.056Z,5.50
2022-11-10T21:24:05.880Z,5.40
2022-11-10T21:26:35.650Z,5.40
2022-11-10T21:29:03.653Z,5.30
2022-11-10T21:31:31.303Z,5.30
2022-11-10T21:33:58.849Z,5.30
2022-11-10T21:36:29.486Z,5.20
2022-11-10T21:38:58.358Z,5.20
2022-11-10T21:41:26.492Z,5.20
2022-11-10T21:43:53.657Z,5.10
2022-11-10T21:46:21.420Z,5.00
2022-11-10T21:48:50.653Z,4.90
2022-11-10T21:51:19.800Z,5.00
2022-11-10T21:53:47.262Z,5.00
2022-11-10T21:56:14.570Z,5.00
2022-11-10T21:58:41.590Z,4.90
2022-11-10T22:01:15.161Z,4.90
2022-11-10T22:03:42.301Z,4.90
2022-11-10T22:06:18.420Z,4.80
2022-11-10T22:08:47.317Z,4.80
2022-11-10T22:11:40.429Z,4.70
2022-11-10T22:14:19.854Z,4.70
2022-11-10T22:17:10.065Z,4.70
2022-11-10T22:19:37.623Z,4.70
2022-11-10T22:22:04.712Z,4.70
2022-11-10T22:24:32.137Z,4.60
2022-11-10T22:27:01.499Z,4.60
2022-11-10T22:29:32.222Z,4.60
2022-11-10T22:32:03.745Z,4.60
2022-11-10T22:34:30.740Z,4.60
2022-11-10T22:36:59.678Z,4.60
2022-11-10T22:39:46.816Z,4.60
2022-11-10T22:42:33.106Z,4.60
2022-11-10T22:45:00.165Z,4.70
2022-11-10T22:47:47.164Z,4.60
2022-11-10T22:50:14.230Z,4.60
2022-11-10T22:52:41.209Z,4.60
2022-11-10T22:55:08.478Z,4.60
2022-11-10T22:57:35.469Z,4.60
2022-11-10T23:00:02.737Z,4.60
2022-11-10T23:02:29.775Z,4.50
2022-11-10T23:04:56.773Z,4.50
2022-11-10T23:07:23.749Z,4.50
2022-11-10T23:09:50.811Z,4.50
2022-11-10T23:12:18.386Z,4.50
2022-11-10T23:14:45.392Z,4.40
2022-11-10T23:17:12.475Z,4.30
2022-11-10T23:19:40.885Z,4.30
2022-11-10T23:22:07.892Z,4.30
2022-11-10T23:24:35.013Z,4.20
2022-11-10T23:27:02.054Z,4.00
2022-11-10T23:29:29.043Z,3.80
2022-11-10T23:31:56.073Z,3.80
2022-11-10T23:34:23.135Z,3.70
2022-11-10T23:36:50.151Z,3.80
2022-11-10T23:39:17.172Z,3.80
2022-11-10T23:41:44.151Z,3.80
2022-11-10T23:44:11.149Z,3.80
2022-11-10T23:46:38.228Z,3.80
2022-11-10T23:49:05.273Z,3.70
2022-11-10T23:51:32.829Z,3.80
2022-11-10T23:54:00.054Z,3.90
2022-11-10T23:56:27.174Z,3.80
2022-11-10T23:58:54.152Z,3.80
